»·PEaware :: N196EC KSNA-L45

N196EC :: KSNA-L45

FLIGHT INFORMATION

Flight Status: Arrived
Operator: Privately registered:
United States
More flights under this callsign
Pilot: Adrián R. (20842)
Aircraft: BEECH AIRCRAFT DEBONAIR BONANZA
(BE33)
More flights by this aircraft type
Origin: KSNA John Wayne-Orange Co
United States
Destination: L45 Bakersfield Mun
United States
More flights between these airports :: More routes between these airports
Route: SLI V459 LOPES
File this flight plan on PilotEdge
Remarks:
Altitude:
(Current/Filed)
10,000ft
Speed:
(Current/Filed)
155kts
Departed: 22-Nov-18 08:39 AM
Arrived: 22-Nov-18 09:37 AM
Distance/Time
Traveled:
114nm/0:58
Distance/Time
To Go:
Arrived

Flight Plot

Page will automatically refresh every two minutes.

Flight plan parsing failed; only flown route is shown


Map Options




Map Legend


Flown Route
Filed Route
Departure Airport
Arrival Airport
Navaid (VOR, NDB)
Fix

Horizontal Profiles

Position Reports

Time Latitude Longitude Heading Altitude Ground
Speed
22-Nov-18 08:06 33.670989 -117.867954 33 59ft 0kts
22-Nov-18 08:07 33.670989 -117.867954 33 59ft 0kts
22-Nov-18 08:08 33.670989 -117.867954 33 59ft 0kts
22-Nov-18 08:09 33.670989 -117.867954 33 59ft 0kts
22-Nov-18 08:10 33.670989 -117.867954 33 59ft 0kts
22-Nov-18 08:11 33.670989 -117.867954 33 59ft 0kts
22-Nov-18 08:12 33.670989 -117.867954 33 59ft 0kts
22-Nov-18 08:13 33.670989 -117.867954 33 59ft 0kts
22-Nov-18 08:14 33.670989 -117.867954 33 59ft 0kts
22-Nov-18 08:15 33.670989 -117.867954 33 59ft 0kts
22-Nov-18 08:16 33.670989 -117.867954 33 59ft 0kts
22-Nov-18 08:17 33.671485 -117.868553 28 59ft 7kts
22-Nov-18 08:18 33.673508 -117.867823 78 59ft 0kts
22-Nov-18 08:19 33.673508 -117.867823 78 59ft 0kts
22-Nov-18 08:20 33.673508 -117.867823 78 59ft 0kts
22-Nov-18 08:21 33.673508 -117.867823 78 59ft 0kts
22-Nov-18 08:22 33.673508 -117.867823 78 59ft 0kts
22-Nov-18 08:23 33.673508 -117.867823 78 59ft 0kts
22-Nov-18 08:24 33.673508 -117.867823 78 59ft 0kts
22-Nov-18 08:25 33.673508 -117.867823 78 59ft 0kts
22-Nov-18 08:26 33.673508 -117.867823 78 59ft 0kts
22-Nov-18 08:27 33.673508 -117.867823 78 59ft 0kts
22-Nov-18 08:28 33.673508 -117.867823 77 59ft 0kts
22-Nov-18 08:29 33.673508 -117.867823 78 59ft 0kts
22-Nov-18 08:30 33.673508 -117.867823 78 59ft 0kts
22-Nov-18 08:31 33.673508 -117.867823 77 59ft 0kts
22-Nov-18 08:32 33.673508 -117.867823 77 59ft 0kts
22-Nov-18 08:33 33.673508 -117.867823 77 59ft 0kts
22-Nov-18 08:34 33.673508 -117.867823 77 59ft 0kts
22-Nov-18 08:35 33.673508 -117.867823 77 59ft 0kts
22-Nov-18 08:36 33.673508 -117.867823 77 59ft 0kts
22-Nov-18 08:37 33.673508 -117.867823 77 59ft 0kts
22-Nov-18 08:38 33.673510 -117.867814 76 59ft 0kts
22-Nov-18 08:39 33.675074 -117.866453 27 59ft 12kts
22-Nov-18 08:40 33.679245 -117.863817 27 59ft 20kts
22-Nov-18 08:41 33.679801 -117.864371 207 59ft 6kts
22-Nov-18 08:42 33.661171 -117.876243 207 429ft 93kts
22-Nov-18 08:43 33.639681 -117.894162 253 1138ft 103kts
22-Nov-18 08:44 33.650354 -117.923871 301 2220ft 96kts
22-Nov-18 08:45 33.666022 -117.949001 321 3079ft 98kts
22-Nov-18 08:46 33.688503 -117.969677 322 3839ft 104kts
22-Nov-18 08:47 33.711303 -117.990383 322 4632ft 101kts
22-Nov-18 08:48 33.732953 -118.010060 322 5414ft 94kts
22-Nov-18 08:49 33.752937 -118.028082 321 6188ft 85kts
22-Nov-18 08:50 33.771818 -118.045116 321 6796ft 91kts
22-Nov-18 08:51 33.795207 -118.061917 330 7340ft 103kts
22-Nov-18 08:52 33.820700 -118.076533 329 7995ft 100kts
22-Nov-18 08:53 33.845780 -118.090953 328 8586ft 100kts
22-Nov-18 08:54 33.871072 -118.105517 327 9110ft 103kts
22-Nov-18 08:55 33.897377 -118.120628 327 9604ft 105kts
22-Nov-18 08:56 33.924276 -118.136137 326 9963ft 116kts
22-Nov-18 08:57 33.956716 -118.154830 328 9961ft 138kts
22-Nov-18 08:58 33.992345 -118.175162 328 9955ft 140kts
22-Nov-18 08:59 34.026715 -118.194917 328 9958ft 136kts
22-Nov-18 09:00 34.060716 -118.214561 328 9958ft 135kts
22-Nov-18 09:01 34.094360 -118.234017 328 9958ft 134kts
22-Nov-18 09:02 34.125380 -118.251993 328 9961ft 137kts
22-Nov-18 09:03 34.159711 -118.271860 328 9962ft 139kts
22-Nov-18 09:04 34.194713 -118.292128 328 9962ft 140kts
22-Nov-18 09:05 34.229950 -118.312560 328 9962ft 140kts
22-Nov-18 09:06 34.265211 -118.333030 328 9962ft 140kts
22-Nov-18 09:07 34.300518 -118.353548 328 9963ft 140kts
22-Nov-18 09:08 34.335728 -118.374029 328 9963ft 140kts
22-Nov-18 09:09 34.370946 -118.394534 328 9964ft 140kts
22-Nov-18 09:10 34.406123 -118.415033 328 9965ft 140kts
22-Nov-18 09:11 34.441322 -118.435543 328 9965ft 141kts
22-Nov-18 09:12 34.476715 -118.456212 327 9966ft 141kts
22-Nov-18 09:13 34.512169 -118.476942 327 9967ft 141kts
22-Nov-18 09:14 34.547666 -118.497717 327 9967ft 142kts
22-Nov-18 09:15 34.583143 -118.518482 327 9967ft 142kts
22-Nov-18 09:16 34.618795 -118.539362 327 9966ft 142kts
22-Nov-18 09:17 34.654575 -118.560346 326 9964ft 143kts
22-Nov-18 09:18 34.691470 -118.579835 335 9962ft 148kts
22-Nov-18 09:19 34.731030 -118.594079 335 9979ft 149kts
22-Nov-18 09:20 34.771004 -118.608391 335 9979ft 151kts
22-Nov-18 09:21 34.810682 -118.622526 335 9979ft 151kts
22-Nov-18 09:22 34.848878 -118.636134 335 9979ft 151kts
22-Nov-18 09:23 34.888643 -118.650346 335 9865ft 159kts
22-Nov-18 09:24 34.930883 -118.665407 336 9265ft 180kts
22-Nov-18 09:25 34.978283 -118.682191 334 8980ft 169kts
22-Nov-18 09:26 35.020740 -118.699321 312 8849ft 155kts
22-Nov-18 09:27 35.031228 -118.749722 266 7962ft 166kts
22-Nov-18 09:28 35.031427 -118.806479 263 6975ft 168kts
22-Nov-18 09:29 35.035974 -118.863352 299 5975ft 180kts
22-Nov-18 09:30 35.072364 -118.906706 316 4987ft 178kts
22-Nov-18 09:31 35.106022 -118.943704 317 3972ft 154kts
22-Nov-18 09:32 35.133724 -118.972076 342 3076ft 131kts
22-Nov-18 09:33 35.169430 -118.978012 355 2213ft 126kts
22-Nov-18 09:34 35.202676 -118.981981 355 1998ft 116kts
22-Nov-18 09:35 35.234391 -118.985644 355 1983ft 116kts
22-Nov-18 09:36 35.262034 -118.988751 355 1524ft 89kts
22-Nov-18 09:37 35.285129 -118.991442 355 1072ft 78kts
22-Nov-18 09:38 35.306313 -118.994009 355 659ft 76kts
22-Nov-18 09:39 35.325740 -118.996121 355 381ft 42kts
22-Nov-18 09:40 35.327491 -118.997291 268 381ft 0kts
22-Nov-18 09:41 35.327489 -118.997316 260 381ft 1kts
22-Nov-18 09:42 35.325844 -118.997244 174 380ft 11kts
22-Nov-18 09:43 35.325541 -118.997428 358 380ft 0kts
22-Nov-18 09:44 35.325553 -118.997429 358 381ft 0kts
22-Nov-18 09:45 35.325553 -118.997429 358 381ft 0kts
22-Nov-18 09:46 35.325553 -118.997429 358 381ft 0kts
22-Nov-18 09:47 35.325553 -118.997429 358 381ft 0kts
22-Nov-18 09:48 35.325553 -118.997429 358 381ft 0kts
22-Nov-18 09:49 35.325553 -118.997429 358 381ft 0kts
22-Nov-18 09:50 35.325553 -118.997429 358 381ft 0kts
22-Nov-18 09:51 35.325553 -118.997429 358 381ft 0kts
22-Nov-18 09:52 35.325553 -118.997429 358 381ft 0kts
22-Nov-18 09:53 35.325553 -118.997429 358 381ft 0kts
22-Nov-18 09:54 35.325553 -118.997429 358 381ft 0kts

Navigation Log

Ident Type
Flight plan parsing failed, navigation log unavailable